sensor_id;sensor_type;location;lat;lon;timestamp;temperature;humidity
14122;DHT22;7139;48.114;11.442;2023-05-10T00:00:37;14.50;99.90
14122;DHT22;7139;48.114;11.442;2023-05-10T00:03:04;14.40;99.90
14122;DHT22;7139;48.114;11.442;2023-05-10T00:05:30;14.40;99.90
14122;DHT22;7139;48.114;11.442;2023-05-10T00:07:57;14.40;99.90
14122;DHT22;7139;48.114;11.442;2023-05-10T00:10:24;14.40;99.90
14122;DHT22;7139;48.114;11.442;2023-05-10T00:12:51;14.30;99.90
14122;DHT22;7139;48.114;11.442;2023-05-10T00:15:17;14.30;99.90
14122;DHT22;7139;48.114;11.442;2023-05-10T00:17:46;14.30;99.90
14122;DHT22;7139;48.114;11.442;2023-05-10T00:20:12;14.30;99.90
14122;DHT22;7139;48.114;11.442;2023-05-10T00:22:39;14.20;99.90
14122;DHT22;7139;48.114;11.442;2023-05-10T00:25:07;14.20;99.90
14122;DHT22;7139;48.114;11.442;2023-05-10T00:27:34;14.20;99.90
14122;DHT22;7139;48.114;11.442;2023-05-10T00:30:01;14.20;99.90
14122;DHT22;7139;48.114;11.442;2023-05-10T00:32:28;14.20;99.90
14122;DHT22;7139;48.114;11.442;2023-05-10T00:34:56;14.20;99.90
14122;DHT22;7139;48.114;11.442;2023-05-10T00:37:23;14.20;99.90
14122;DHT22;7139;48.114;11.442;2023-05-10T00:39:49;14.10;99.90
14122;DHT22;7139;48.114;11.442;2023-05-10T00:42:16;14.10;99.90
14122;DHT22;7139;48.114;11.442;2023-05-10T00:44:43;14.10;99.90
14122;DHT22;7139;48.114;11.442;2023-05-10T00:47:10;14.10;99.90
14122;DHT22;7139;48.114;11.442;2023-05-10T00:49:37;14.10;99.90
14122;DHT22;7139;48.114;11.442;2023-05-10T00:52:05;14.00;99.90
14122;DHT22;7139;48.114;11.442;2023-05-10T00:54:32;14.10;99.90
14122;DHT22;7139;48.114;11.442;2023-05-10T00:56:59;14.10;99.90
14122;DHT22;7139;48.114;11.442;2023-05-10T00:59:26;14.10;99.90
14122;DHT22;7139;48.114;11.442;2023-05-10T01:01:53;14.10;99.90
14122;DHT22;7139;48.114;11.442;2023-05-10T01:04:20;14.10;99.90
14122;DHT22;7139;48.114;11.442;2023-05-10T01:06:51;14.10;99.90
14122;DHT22;7139;48.114;11.442;2023-05-10T01:09:19;14.00;99.90
14122;DHT22;7139;48.114;11.442;2023-05-10T01:11:47;14.00;99.90
14122;DHT22;7139;48.114;11.442;2023-05-10T01:14:15;14.00;99.90
14122;DHT22;7139;48.114;11.442;2023-05-10T01:16:44;13.90;99.90
14122;DHT22;7139;48.114;11.442;2023-05-10T01:19:17;13.90;99.90
14122;DHT22;7139;48.114;11.442;2023-05-10T01:21:49;13.90;99.90
14122;DHT22;7139;48.114;11.442;2023-05-10T01:24:36;13.90;99.90
14122;DHT22;7139;48.114;11.442;2023-05-10T01:27:25;13.90;99.90
14122;DHT22;7139;48.114;11.442;2023-05-10T01:30:07;13.90;99.90
14122;DHT22;7139;48.114;11.442;2023-05-10T01:32:39;13.90;99.90
14122;DHT22;7139;48.114;11.442;2023-05-10T01:35:15;13.90;99.90
14122;DHT22;7139;48.114;11.442;2023-05-10T01:37:46;13.90;99.90
14122;DHT22;7139;48.114;11.442;2023-05-10T01:40:19;13.90;99.90
14122;DHT22;7139;48.114;11.442;2023-05-10T01:42:53;13.90;99.90
14122;DHT22;7139;48.114;11.442;2023-05-10T01:45:27;13.90;99.90
14122;DHT22;7139;48.114;11.442;2023-05-10T01:48:05;13.90;99.90
14122;DHT22;7139;48.114;11.442;2023-05-10T01:50:32;13.90;99.90
14122;DHT22;7139;48.114;11.442;2023-05-10T01:53:01;13.90;99.90
14122;DHT22;7139;48.114;11.442;2023-05-10T01:55:32;13.90;99.90
14122;DHT22;7139;48.114;11.442;2023-05-10T01:58:03;13.90;99.90
14122;DHT22;7139;48.114;11.442;2023-05-10T02:00:32;13.90;99.90
14122;DHT22;7139;48.114;11.442;2023-05-10T02:03:05;13.90;99.90
14122;DHT22;7139;48.114;11.442;2023-05-10T02:05:33;13.90;99.90
14122;DHT22;7139;48.114;11.442;2023-05-10T02:08:02;13.90;99.90
14122;DHT22;7139;48.114;11.442;2023-05-10T02:10:30;13.90;99.90
14122;DHT22;7139;48.114;11.442;2023-05-10T02:12:59;13.90;99.90
14122;DHT22;7139;48.114;11.442;2023-05-10T02:15:26;13.90;99.90
14122;DHT22;7139;48.114;11.442;2023-05-10T02:17:55;13.90;99.90
14122;DHT22;7139;48.114;11.442;2023-05-10T02:20:25;13.90;99.90
14122;DHT22;7139;48.114;11.442;2023-05-10T02:22:54;13.90;99.90
14122;DHT22;7139;48.114;11.442;2023-05-10T02:25:22;13.80;99.90
14122;DHT22;7139;48.114;11.442;2023-05-10T02:27:50;13.70;99.90
14122;DHT22;7139;48.114;11.442;2023-05-10T02:30:18;13.70;99.90
14122;DHT22;7139;48.114;11.442;2023-05-10T02:32:46;13.70;99.90
14122;DHT22;7139;48.114;11.442;2023-05-10T02:35:13;13.70;99.90
14122;DHT22;7139;48.114;11.442;2023-05-10T02:37:42;13.70;99.90
14122;DHT22;7139;48.114;11.442;2023-05-10T02:40:10;13.70;99.90
14122;DHT22;7139;48.114;11.442;2023-05-10T02:42:42;13.70;99.90
14122;DHT22;7139;48.114;11.442;2023-05-10T02:45:13;13.70;99.90
14122;DHT22;7139;48.114;11.442;2023-05-10T02:47:41;13.70;99.90
14122;DHT22;7139;48.114;11.442;2023-05-10T02:50:09;13.60;99.90
14122;DHT22;7139;48.114;11.442;2023-05-10T02:52:40;13.60;99.90
14122;DHT22;7139;48.114;11.442;2023-05-10T02:55:11;13.60;99.90
14122;DHT22;7139;48.114;11.442;2023-05-10T02:57:41;13.60;99.90
14122;DHT22;7139;48.114;11.442;2023-05-10T03:00:10;13.60;99.90
14122;DHT22;7139;48.114;11.442;2023-05-10T03:02:37;13.60;99.90
14122;DHT22;7139;48.114;11.442;2023-05-10T03:05:04;13.60;99.90
14122;DHT22;7139;48.114;11.442;2023-05-10T03:07:31;13.60;99.90
14122;DHT22;7139;48.114;11.442;2023-05-10T03:09:58;13.60;99.90
14122;DHT22;7139;48.114;11.442;2023-05-10T03:12:33;13.60;99.90
14122;DHT22;7139;48.114;11.442;2023-05-10T03:15:10;13.60;99.90
14122;DHT22;7139;48.114;11.442;2023-05-10T03:17:45;13.70;99.90
14122;DHT22;7139;48.114;11.442;2023-05-10T03:20:21;13.70;99.90
14122;DHT22;7139;48.114;11.442;2023-05-10T03:22:51;13.70;99.90
14122;DHT22;7139;48.114;11.442;2023-05-10T03:25:21;13.70;99.90
14122;DHT22;7139;48.114;11.442;2023-05-10T03:27:49;13.70;99.90
14122;DHT22;7139;48.114;11.442;2023-05-10T03:30:16;13.70;99.90
14122;DHT22;7139;48.114;11.442;2023-05-10T03:32:43;13.70;99.90
14122;DHT22;7139;48.114;11.442;2023-05-10T03:35:11;13.70;99.90
14122;DHT22;7139;48.114;11.442;2023-05-10T03:37:38;13.70;99.90
14122;DHT22;7139;48.114;11.442;2023-05-10T03:40:06;13.70;99.90
14122;DHT22;7139;48.114;11.442;2023-05-10T03:42:33;13.60;99.90
14122;DHT22;7139;48.114;11.442;2023-05-10T03:45:02;13.60;99.90
14122;DHT22;7139;48.114;11.442;2023-05-10T03:47:28;13.60;99.90
14122;DHT22;7139;48.114;11.442;2023-05-10T03:49:55;13.60;99.90
14122;DHT22;7139;48.114;11.442;2023-05-10T03:52:22;13.60;99.90
14122;DHT22;7139;48.114;11.442;2023-05-10T03:54:49;13.60;99.90
14122;DHT22;7139;48.114;11.442;2023-05-10T03:57:16;13.60;99.90
14122;DHT22;7139;48.114;11.442;2023-05-10T03:59:42;13.50;99.90
14122;DHT22;7139;48.114;11.442;2023-05-10T04:02:10;13.50;99.90
14122;DHT22;7139;48.114;11.442;2023-05-10T04:04:37;13.50;99.90
14122;DHT22;7139;48.114;11.442;2023-05-10T04:07:04;13.50;99.90
14122;DHT22;7139;48.114;11.442;2023-05-10T04:09:30;13.50;99.90
14122;DHT22;7139;48.114;11.442;2023-05-10T04:11:58;13.50;99.90
14122;DHT22;7139;48.114;11.442;2023-05-10T04:14:25;13.50;99.90
14122;DHT22;7139;48.114;11.442;2023-05-10T04:16:52;13.50;99.90
14122;DHT22;7139;48.114;11.442;2023-05-10T04:19:20;13.50;99.90
14122;DHT22;7139;48.114;11.442;2023-05-10T04:21:47;13.60;99.90
14122;DHT22;7139;48.114;11.442;2023-05-10T04:24:14;13.60;99.90
14122;DHT22;7139;48.114;11.442;2023-05-10T04:26:41;13.50;99.90
14122;DHT22;7139;48.114;11.442;2023-05-10T04:29:07;13.50;99.90
14122;DHT22;7139;48.114;11.442;2023-05-10T04:31:34;13.50;99.90
14122;DHT22;7139;48.114;11.442;2023-05-10T04:34:01;13.50;99.90
14122;DHT22;7139;48.114;11.442;2023-05-10T04:36:29;13.50;99.90
14122;DHT22;7139;48.114;11.442;2023-05-10T04:38:57;13.50;99.90
14122;DHT22;7139;48.114;11.442;2023-05-10T04:41:24;13.50;99.90
14122;DHT22;7139;48.114;11.442;2023-05-10T04:43:51;13.50;99.90
14122;DHT22;7139;48.114;11.442;2023-05-10T04:46:18;13.50;99.90
14122;DHT22;7139;48.114;11.442;2023-05-10T04:48:44;13.50;99.90
14122;DHT22;7139;48.114;11.442;2023-05-10T04:51:11;13.40;99.90
14122;DHT22;7139;48.114;11.442;2023-05-10T04:53:39;13.30;99.90
14122;DHT22;7139;48.114;11.442;2023-05-10T04:56:06;13.30;99.90
14122;DHT22;7139;48.114;11.442;2023-05-10T04:58:33;13.20;99.90
14122;DHT22;7139;48.114;11.442;2023-05-10T05:01:05;13.20;99.90
14122;DHT22;7139;48.114;11.442;2023-05-10T05:03:32;13.10;99.90
14122;DHT22;7139;48.114;11.442;2023-05-10T05:05:58;13.10;99.90
14122;DHT22;7139;48.114;11.442;2023-05-10T05:08:25;13.10;99.90
14122;DHT22;7139;48.114;11.442;2023-05-10T05:10:53;13.10;99.90
14122;DHT22;7139;48.114;11.442;2023-05-10T05:13:21;13.10;99.90
14122;DHT22;7139;48.114;11.442;2023-05-10T05:15:47;13.10;99.90
14122;DHT22;7139;48.114;11.442;2023-05-10T05:18:14;13.10;99.90
14122;DHT22;7139;48.114;11.442;2023-05-10T05:20:41;13.10;99.90
14122;DHT22;7139;48.114;11.442;2023-05-10T05:23:08;13.10;99.90
14122;DHT22;7139;48.114;11.442;2023-05-10T05:25:34;13.00;99.90
14122;DHT22;7139;48.114;11.442;2023-05-10T05:28:03;12.90;99.90
14122;DHT22;7139;48.114;11.442;2023-05-10T05:30:30;12.90;99.90
14122;DHT22;7139;48.114;11.442;2023-05-10T05:32:57;12.80;99.90
14122;DHT22;7139;48.114;11.442;2023-05-10T05:35:24;12.50;99.90
14122;DHT22;7139;48.114;11.442;2023-05-10T05:37:51;12.40;99.90
14122;DHT22;7139;48.114;11.442;2023-05-10T05:40:18;12.40;99.90
14122;DHT22;7139;48.114;11.442;2023-05-10T05:42:45;12.40;99.90
14122;DHT22;7139;48.114;11.442;2023-05-10T05:45:13;12.30;99.90
14122;DHT22;7139;48.114;11.442;2023-05-10T05:47:40;12.40;99.90
14122;DHT22;7139;48.114;11.442;2023-05-10T05:50:08;12.50;99.90
14122;DHT22;7139;48.114;11.442;2023-05-10T05:52:35;12.50;99.90
14122;DHT22;7139;48.114;11.442;2023-05-10T05:55:02;12.50;99.90
14122;DHT22;7139;48.114;11.442;2023-05-10T05:57:29;12.60;99.90
14122;DHT22;7139;48.114;11.442;2023-05-10T05:59:56;12.70;99.90
14122;DHT22;7139;48.114;11.442;2023-05-10T06:02:24;12.70;99.90
14122;DHT22;7139;48.114;11.442;2023-05-10T06:04:51;12.70;99.90
14122;DHT22;7139;48.114;11.442;2023-05-10T06:07:17;12.70;99.90
14122;DHT22;7139;48.114;11.442;2023-05-10T06:09:44;12.70;99.90
14122;DHT22;7139;48.114;11.442;2023-05-10T06:12:11;12.80;99.90
14122;DHT22;7139;48.114;11.442;2023-05-10T06:14:38;12.80;99.90
14122;DHT22;7139;48.114;11.442;2023-05-10T06:17:04;12.80;99.90
14122;DHT22;7139;48.114;11.442;2023-05-10T06:19:33;12.90;99.90
14122;DHT22;7139;48.114;11.442;2023-05-10T06:22:00;12.90;99.90
14122;DHT22;7139;48.114;11.442;2023-05-10T06:24:26;12.90;99.90
14122;DHT22;7139;48.114;11.442;2023-05-10T06:26:53;13.00;99.90
14122;DHT22;7139;48.114;11.442;2023-05-10T06:29:20;13.00;99.90
14122;DHT22;7139;48.114;11.442;2023-05-10T06:31:47;13.10;99.90
14122;DHT22;7139;48.114;11.442;2023-05-10T06:34:14;13.20;99.90
14122;DHT22;7139;48.114;11.442;2023-05-10T06:36:42;13.30;99.90
14122;DHT22;7139;48.114;11.442;2023-05-10T06:39:08;13.40;99.90
14122;DHT22;7139;48.114;11.442;2023-05-10T06:41:37;13.50;99.90
14122;DHT22;7139;48.114;11.442;2023-05-10T06:44:04;13.60;99.90
14122;DHT22;7139;48.114;11.442;2023-05-10T06:46:30;13.60;99.90
14122;DHT22;7139;48.114;11.442;2023-05-10T06:48:57;13.80;99.90
14122;DHT22;7139;48.114;11.442;2023-05-10T06:51:24;13.80;99.90
14122;DHT22;7139;48.114;11.442;2023-05-10T06:53:52;13.80;99.90
14122;DHT22;7139;48.114;11.442;2023-05-10T06:56:19;13.80;99.90
14122;DHT22;7139;48.114;11.442;2023-05-10T06:58:47;13.80;99.90
14122;DHT22;7139;48.114;11.442;2023-05-10T07:01:13;13.90;99.90
14122;DHT22;7139;48.114;11.442;2023-05-10T07:03:40;14.00;99.90
14122;DHT22;7139;48.114;11.442;2023-05-10T07:06:07;14.10;99.90
14122;DHT22;7139;48.114;11.442;2023-05-10T07:08:34;13.90;99.90
14122;DHT22;7139;48.114;11.442;2023-05-10T07:11:03;13.90;99.90
14122;DHT22;7139;48.114;11.442;2023-05-10T07:13:30;13.90;99.90
14122;DHT22;7139;48.114;11.442;2023-05-10T07:15:57;13.90;99.90
14122;DHT22;7139;48.114;11.442;2023-05-10T07:18:25;13.80;99.90
14122;DHT22;7139;48.114;11.442;2023-05-10T07:20:51;13.90;99.90
14122;DHT22;7139;48.114;11.442;2023-05-10T07:23:18;14.00;99.90
14122;DHT22;7139;48.114;11.442;2023-05-10T07:25:45;13.90;99.90
14122;DHT22;7139;48.114;11.442;2023-05-10T07:28:14;14.00;99.90
14122;DHT22;7139;48.114;11.442;2023-05-10T07:30:42;13.90;99.90
14122;DHT22;7139;48.114;11.442;2023-05-10T07:33:09;13.90;99.90
14122;DHT22;7139;48.114;11.442;2023-05-10T07:35:36;14.00;99.90
14122;DHT22;7139;48.114;11.442;2023-05-10T07:38:03;14.00;99.90
14122;DHT22;7139;48.114;11.442;2023-05-10T07:40:30;14.00;99.90
14122;DHT22;7139;48.114;11.442;2023-05-10T07:42:57;14.00;99.90
14122;DHT22;7139;48.114;11.442;2023-05-10T07:45:26;14.00;99.90
14122;DHT22;7139;48.114;11.442;2023-05-10T07:47:53;14.00;99.90
14122;DHT22;7139;48.114;11.442;2023-05-10T07:50:20;14.10;99.90
14122;DHT22;7139;48.114;11.442;2023-05-10T07:52:47;14.10;99.90
14122;DHT22;7139;48.114;11.442;2023-05-10T07:55:14;14.30;99.90
14122;DHT22;7139;48.114;11.442;2023-05-10T07:57:41;14.30;99.90
14122;DHT22;7139;48.114;11.442;2023-05-10T08:00:11;14.30;99.90
14122;DHT22;7139;48.114;11.442;2023-05-10T08:02:40;14.40;99.90
14122;DHT22;7139;48.114;11.442;2023-05-10T08:05:08;14.50;99.90
14122;DHT22;7139;48.114;11.442;2023-05-10T08:07:34;14.50;99.90
14122;DHT22;7139;48.114;11.442;2023-05-10T08:10:01;14.60;99.90
14122;DHT22;7139;48.114;11.442;2023-05-10T08:12:28;14.60;99.90
14122;DHT22;7139;48.114;11.442;2023-05-10T08:14:55;14.60;99.90
14122;DHT22;7139;48.114;11.442;2023-05-10T08:17:22;14.60;99.90
14122;DHT22;7139;48.114;11.442;2023-05-10T08:19:50;14.60;99.90
14122;DHT22;7139;48.114;11.442;2023-05-10T08:22:17;14.60;99.90
14122;DHT22;7139;48.114;11.442;2023-05-10T08:24:43;14.60;99.90
14122;DHT22;7139;48.114;11.442;2023-05-10T08:27:10;14.50;99.90
14122;DHT22;7139;48.114;11.442;2023-05-10T08:29:37;14.50;99.90
14122;DHT22;7139;48.114;11.442;2023-05-10T08:32:04;14.60;99.90
14122;DHT22;7139;48.114;11.442;2023-05-10T08:34:31;14.60;99.90
14122;DHT22;7139;48.114;11.442;2023-05-10T08:36:59;14.60;99.90
14122;DHT22;7139;48.114;11.442;2023-05-10T08:39:26;14.50;99.90
14122;DHT22;7139;48.114;11.442;2023-05-10T08:41:54;14.50;99.90
14122;DHT22;7139;48.114;11.442;2023-05-10T08:44:24;14.50;99.90
14122;DHT22;7139;48.114;11.442;2023-05-10T08:46:53;14.50;99.90
14122;DHT22;7139;48.114;11.442;2023-05-10T08:49:21;14.50;99.90
14122;DHT22;7139;48.114;11.442;2023-05-10T08:51:52;14.50;99.90
14122;DHT22;7139;48.114;11.442;2023-05-10T08:54:22;14.60;99.90
14122;DHT22;7139;48.114;11.442;2023-05-10T08:56:49;14.70;99.90
14122;DHT22;7139;48.114;11.442;2023-05-10T08:59:16;14.70;99.90
14122;DHT22;7139;48.114;11.442;2023-05-10T09:01:44;14.70;99.90
14122;DHT22;7139;48.114;11.442;2023-05-10T09:04:13;14.60;99.90
14122;DHT22;7139;48.114;11.442;2023-05-10T09:06:40;14.60;99.90
14122;DHT22;7139;48.114;11.442;2023-05-10T09:09:07;14.60;99.90
14122;DHT22;7139;48.114;11.442;2023-05-10T09:11:35;14.70;99.90
14122;DHT22;7139;48.114;11.442;2023-05-10T09:14:02;14.60;99.90
14122;DHT22;7139;48.114;11.442;2023-05-10T09:16:29;14.60;99.90
14122;DHT22;7139;48.114;11.442;2023-05-10T09:18:56;14.60;99.90
14122;DHT22;7139;48.114;11.442;2023-05-10T09:21:23;14.80;99.90
14122;DHT22;7139;48.114;11.442;2023-05-10T09:23:49;15.00;99.90
14122;DHT22;7139;48.114;11.442;2023-05-10T09:26:22;15.20;99.90
14122;DHT22;7139;48.114;11.442;2023-05-10T09:28:52;15.50;99.90
14122;DHT22;7139;48.114;11.442;2023-05-10T09:31:19;15.50;99.90
14122;DHT22;7139;48.114;11.442;2023-05-10T09:33:46;15.50;99.90
14122;DHT22;7139;48.114;11.442;2023-05-10T09:36:13;15.50;99.90
14122;DHT22;7139;48.114;11.442;2023-05-10T09:38:47;15.30;99.90
14122;DHT22;7139;48.114;11.442;2023-05-10T09:41:18;15.20;99.90
14122;DHT22;7139;48.114;11.442;2023-05-10T09:43:45;15.10;99.90
14122;DHT22;7139;48.114;11.442;2023-05-10T09:46:14;15.10;99.90
14122;DHT22;7139;48.114;11.442;2023-05-10T09:48:43;15.20;99.90
14122;DHT22;7139;48.114;11.442;2023-05-10T09:51:10;15.40;99.90
14122;DHT22;7139;48.114;11.442;2023-05-10T09:53:37;15.50;99.90
14122;DHT22;7139;48.114;11.442;2023-05-10T09:56:04;15.60;99.90
14122;DHT22;7139;48.114;11.442;2023-05-10T09:58:30;15.70;99.90
14122;DHT22;7139;48.114;11.442;2023-05-10T10:00:57;15.70;99.90
14122;DHT22;7139;48.114;11.442;2023-05-10T10:03:25;15.70;99.90
14122;DHT22;7139;48.114;11.442;2023-05-10T10:05:52;15.70;99.90
14122;DHT22;7139;48.114;11.442;2023-05-10T10:08:21;15.80;99.90
14122;DHT22;7139;48.114;11.442;2023-05-10T10:10:49;16.00;99.90
14122;DHT22;7139;48.114;11.442;2023-05-10T10:13:16;16.20;99.90
14122;DHT22;7139;48.114;11.442;2023-05-10T10:15:43;16.40;99.90
14122;DHT22;7139;48.114;11.442;2023-05-10T10:18:13;16.50;99.90
14122;DHT22;7139;48.114;11.442;2023-05-10T10:20:42;16.40;99.90
14122;DHT22;7139;48.114;11.442;2023-05-10T10:23:11;16.40;99.90
14122;DHT22;7139;48.114;11.442;2023-05-10T10:25:38;16.50;99.90
14122;DHT22;7139;48.114;11.442;2023-05-10T10:28:15;16.60;99.90
14122;DHT22;7139;48.114;11.442;2023-05-10T10:30:45;16.60;99.90
14122;DHT22;7139;48.114;11.442;2023-05-10T10:33:36;16.50;99.90
14122;DHT22;7139;48.114;11.442;2023-05-10T10:36:07;16.50;99.90
14122;DHT22;7139;48.114;11.442;2023-05-10T10:38:44;16.30;99.90
14122;DHT22;7139;48.114;11.442;2023-05-10T10:41:32;16.20;99.90
14122;DHT22;7139;48.114;11.442;2023-05-10T10:44:23;16.10;99.90
14122;DHT22;7139;48.114;11.442;2023-05-10T10:47:07;16.00;99.90
14122;DHT22;7139;48.114;11.442;2023-05-10T10:49:43;15.80;99.90
14122;DHT22;7139;48.114;11.442;2023-05-10T10:52:27;15.70;99.90
14122;DHT22;7139;48.114;11.442;2023-05-10T10:55:00;15.60;99.90
14122;DHT22;7139;48.114;11.442;2023-05-10T10:57:30;15.50;99.90
14122;DHT22;7139;48.114;11.442;2023-05-10T11:00:26;15.50;99.90
14122;DHT22;7139;48.114;11.442;2023-05-10T11:02:56;15.50;99.90
14122;DHT22;7139;48.114;11.442;2023-05-10T11:05:35;15.40;99.90
14122;DHT22;7139;48.114;11.442;2023-05-10T11:08:09;15.30;99.90
14122;DHT22;7139;48.114;11.442;2023-05-10T11:10:37;15.20;99.90
14122;DHT22;7139;48.114;11.442;2023-05-10T11:13:04;15.20;99.90
14122;DHT22;7139;48.114;11.442;2023-05-10T11:15:32;15.10;99.90
14122;DHT22;7139;48.114;11.442;2023-05-10T11:17:59;15.10;99.90
14122;DHT22;7139;48.114;11.442;2023-05-10T11:20:27;15.10;99.90
14122;DHT22;7139;48.114;11.442;2023-05-10T11:23:12;15.00;99.90
14122;DHT22;7139;48.114;11.442;2023-05-10T11:25:42;14.80;99.90
14122;DHT22;7139;48.114;11.442;2023-05-10T11:28:10;14.50;99.90
14122;DHT22;7139;48.114;11.442;2023-05-10T11:30:38;14.30;99.90
14122;DHT22;7139;48.114;11.442;2023-05-10T11:33:06;14.10;99.90
14122;DHT22;7139;48.114;11.442;2023-05-10T11:35:37;13.90;99.90
14122;DHT22;7139;48.114;11.442;2023-05-10T11:38:06;13.60;99.90
14122;DHT22;7139;48.114;11.442;2023-05-10T11:40:34;13.40;99.90
14122;DHT22;7139;48.114;11.442;2023-05-10T11:43:01;13.50;99.90
14122;DHT22;7139;48.114;11.442;2023-05-10T11:45:28;13.40;99.90
14122;DHT22;7139;48.114;11.442;2023-05-10T11:47:57;13.20;99.90
14122;DHT22;7139;48.114;11.442;2023-05-10T11:50:24;13.20;99.90
14122;DHT22;7139;48.114;11.442;2023-05-10T11:52:51;13.30;99.90
14122;DHT22;7139;48.114;11.442;2023-05-10T11:55:18;13.30;99.90
14122;DHT22;7139;48.114;11.442;2023-05-10T11:57:47;13.30;99.90
14122;DHT22;7139;48.114;11.442;2023-05-10T12:00:14;13.30;99.90
14122;DHT22;7139;48.114;11.442;2023-05-10T12:02:41;13.40;99.90
14122;DHT22;7139;48.114;11.442;2023-05-10T12:05:09;13.30;99.90
14122;DHT22;7139;48.114;11.442;2023-05-10T12:07:36;13.30;99.90
14122;DHT22;7139;48.114;11.442;2023-05-10T12:10:05;13.40;99.90
14122;DHT22;7139;48.114;11.442;2023-05-10T12:12:38;13.40;99.90
14122;DHT22;7139;48.114;11.442;2023-05-10T12:15:10;13.40;99.90
14122;DHT22;7139;48.114;11.442;2023-05-10T12:17:38;13.30;99.90
14122;DHT22;7139;48.114;11.442;2023-05-10T12:20:19;13.30;99.90
14122;DHT22;7139;48.114;11.442;2023-05-10T12:22:47;13.40;99.90
14122;DHT22;7139;48.114;11.442;2023-05-10T12:25:15;13.40;99.90
14122;DHT22;7139;48.114;11.442;2023-05-10T12:27:48;13.40;99.90
14122;DHT22;7139;48.114;11.442;2023-05-10T12:30:20;13.40;99.90
14122;DHT22;7139;48.114;11.442;2023-05-10T12:32:47;13.50;99.90
14122;DHT22;7139;48.114;11.442;2023-05-10T12:35:14;13.50;99.90
14122;DHT22;7139;48.114;11.442;2023-05-10T12:37:42;13.50;99.90
14122;DHT22;7139;48.114;11.442;2023-05-10T12:40:10;13.60;99.90
14122;DHT22;7139;48.114;11.442;2023-05-10T12:42:38;13.60;99.90
14122;DHT22;7139;48.114;11.442;2023-05-10T12:45:06;13.60;99.90
14122;DHT22;7139;48.114;11.442;2023-05-10T12:47:35;13.60;99.90
14122;DHT22;7139;48.114;11.442;2023-05-10T12:50:02;13.70;99.90
14122;DHT22;7139;48.114;11.442;2023-05-10T12:52:29;13.70;99.90
14122;DHT22;7139;48.114;11.442;2023-05-10T12:54:57;13.70;99.90
14122;DHT22;7139;48.114;11.442;2023-05-10T12:57:24;13.70;99.90
14122;DHT22;7139;48.114;11.442;2023-05-10T12:59:51;13.60;99.90
14122;DHT22;7139;48.114;11.442;2023-05-10T13:02:18;13.60;99.90
14122;DHT22;7139;48.114;11.442;2023-05-10T13:04:47;13.50;99.90
14122;DHT22;7139;48.114;11.442;2023-05-10T13:07:13;13.40;99.90
14122;DHT22;7139;48.114;11.442;2023-05-10T13:09:40;13.40;99.90
14122;DHT22;7139;48.114;11.442;2023-05-10T13:12:07;13.50;99.90
14122;DHT22;7139;48.114;11.442;2023-05-10T13:14:34;13.50;99.90
14122;DHT22;7139;48.114;11.442;2023-05-10T13:17:00;13.50;99.90
14122;DHT22;7139;48.114;11.442;2023-05-10T13:19:27;13.60;99.90
14122;DHT22;7139;48.114;11.442;2023-05-10T13:21:55;13.60;99.90
14122;DHT22;7139;48.114;11.442;2023-05-10T13:24:22;13.60;99.90
14122;DHT22;7139;48.114;11.442;2023-05-10T13:26:49;13.60;99.90
14122;DHT22;7139;48.114;11.442;2023-05-10T13:29:15;13.60;99.90
14122;DHT22;7139;48.114;11.442;2023-05-10T13:31:43;13.50;99.90
14122;DHT22;7139;48.114;11.442;2023-05-10T13:34:10;13.60;99.90
14122;DHT22;7139;48.114;11.442;2023-05-10T13:36:37;13.50;99.90
14122;DHT22;7139;48.114;11.442;2023-05-10T13:39:05;13.50;99.90
14122;DHT22;7139;48.114;11.442;2023-05-10T13:41:32;13.50;99.90
14122;DHT22;7139;48.114;11.442;2023-05-10T13:43:59;13.60;99.90
14122;DHT22;7139;48.114;11.442;2023-05-10T13:46:26;13.60;99.90
14122;DHT22;7139;48.114;11.442;2023-05-10T13:48:52;13.70;99.90
14122;DHT22;7139;48.114;11.442;2023-05-10T13:51:19;13.70;99.90
14122;DHT22;7139;48.114;11.442;2023-05-10T13:53:46;13.60;99.90
14122;DHT22;7139;48.114;11.442;2023-05-10T13:56:15;13.60;99.90
14122;DHT22;7139;48.114;11.442;2023-05-10T13:58:41;13.50;99.90
14122;DHT22;7139;48.114;11.442;2023-05-10T14:01:08;13.50;99.90
14122;DHT22;7139;48.114;11.442;2023-05-10T14:03:35;13.60;99.90
14122;DHT22;7139;48.114;11.442;2023-05-10T14:06:02;13.60;99.90
14122;DHT22;7139;48.114;11.442;2023-05-10T14:08:29;13.60;99.90
14122;DHT22;7139;48.114;11.442;2023-05-10T14:10:55;13.60;99.90
14122;DHT22;7139;48.114;11.442;2023-05-10T14:13:24;13.60;99.90
14122;DHT22;7139;48.114;11.442;2023-05-10T14:15:52;13.60;99.90
14122;DHT22;7139;48.114;11.442;2023-05-10T14:18:18;13.70;99.90
14122;DHT22;7139;48.114;11.442;2023-05-10T14:20:45;13.60;99.90
14122;DHT22;7139;48.114;11.442;2023-05-10T14:23:12;13.60;99.90
14122;DHT22;7139;48.114;11.442;2023-05-10T14:25:40;13.50;99.90
14122;DHT22;7139;48.114;11.442;2023-05-10T14:28:07;13.60;99.90
14122;DHT22;7139;48.114;11.442;2023-05-10T14:30:35;13.40;99.90
14122;DHT22;7139;48.114;11.442;2023-05-10T14:33:02;13.40;99.90
14122;DHT22;7139;48.114;11.442;2023-05-10T14:35:29;13.40;99.90
14122;DHT22;7139;48.114;11.442;2023-05-10T14:37:57;13.40;99.90
14122;DHT22;7139;48.114;11.442;2023-05-10T14:40:24;13.30;99.90
14122;DHT22;7139;48.114;11.442;2023-05-10T14:42:51;13.40;99.90
14122;DHT22;7139;48.114;11.442;2023-05-10T14:45:19;13.30;99.90
14122;DHT22;7139;48.114;11.442;2023-05-10T14:47:47;13.20;99.90
14122;DHT22;7139;48.114;11.442;2023-05-10T14:50:14;13.10;99.90
14122;DHT22;7139;48.114;11.442;2023-05-10T14:52:42;13.00;99.90
14122;DHT22;7139;48.114;11.442;2023-05-10T14:55:09;13.10;99.90
14122;DHT22;7139;48.114;11.442;2023-05-10T14:57:35;13.00;99.90
14122;DHT22;7139;48.114;11.442;2023-05-10T15:00:03;13.10;99.90
14122;DHT22;7139;48.114;11.442;2023-05-10T15:02:30;13.00;99.90
14122;DHT22;7139;48.114;11.442;2023-05-10T15:04:58;13.10;99.90
14122;DHT22;7139;48.114;11.442;2023-05-10T15:07:25;13.00;99.90
14122;DHT22;7139;48.114;11.442;2023-05-10T15:09:52;13.00;99.90
14122;DHT22;7139;48.114;11.442;2023-05-10T15:12:20;13.00;99.90
14122;DHT22;7139;48.114;11.442;2023-05-10T15:14:46;13.10;99.90
14122;DHT22;7139;48.114;11.442;2023-05-10T15:17:13;13.10;99.90
14122;DHT22;7139;48.114;11.442;2023-05-10T15:19:40;13.00;99.90
14122;DHT22;7139;48.114;11.442;2023-05-10T15:22:08;12.90;99.90
14122;DHT22;7139;48.114;11.442;2023-05-10T15:24:34;12.80;99.90
14122;DHT22;7139;48.114;11.442;2023-05-10T15:27:01;12.80;99.90
14122;DHT22;7139;48.114;11.442;2023-05-10T15:29:28;12.70;99.90
14122;DHT22;7139;48.114;11.442;2023-05-10T15:31:55;12.70;99.90
14122;DHT22;7139;48.114;11.442;2023-05-10T15:34:22;12.60;99.90
14122;DHT22;7139;48.114;11.442;2023-05-10T15:36:49;12.60;99.90